sensor_id;sensor_type;location;lat;lon;timestamp;P1;durP1;ratioP1;P2;durP2;ratioP2
37383;SDS011;23258;49.718;11.082;2023-09-19T00:00:44;1.75;;;1.65;;
37383;SDS011;23258;49.718;11.082;2023-09-19T00:03:14;2.53;;;1.90;;
37383;SDS011;23258;49.718;11.082;2023-09-19T00:05:44;1.88;;;1.70;;
37383;SDS011;23258;49.718;11.082;2023-09-19T00:08:15;1.42;;;1.33;;
37383;SDS011;23258;49.718;11.082;2023-09-19T00:10:51;1.50;;;1.40;;
37383;SDS011;23258;49.718;11.082;2023-09-19T00:13:25;3.47;;;2.13;;
37383;SDS011;23258;49.718;11.082;2023-09-19T00:15:55;1.60;;;1.50;;
37383;SDS011;23258;49.718;11.082;2023-09-19T00:18:25;2.80;;;2.05;;
37383;SDS011;23258;49.718;11.082;2023-09-19T00:20:59;2.55;;;1.75;;
37383;SDS011;23258;49.718;11.082;2023-09-19T00:23:31;3.35;;;2.17;;
37383;SDS011;23258;49.718;11.082;2023-09-19T00:26:03;1.77;;;1.67;;
37383;SDS011;23258;49.718;11.082;2023-09-19T00:28:33;3.55;;;1.83;;
37383;SDS011;23258;49.718;11.082;2023-09-19T00:31:02;2.00;;;1.30;;
37383;SDS011;23258;49.718;11.082;2023-09-19T00:33:33;1.95;;;1.63;;
37383;SDS011;23258;49.718;11.082;2023-09-19T00:36:03;2.38;;;1.77;;
37383;SDS011;23258;49.718;11.082;2023-09-19T00:38:33;2.92;;;1.65;;
37383;SDS011;23258;49.718;11.082;2023-09-19T00:41:05;2.42;;;1.77;;
37383;SDS011;23258;49.718;11.082;2023-09-19T00:43:35;2.60;;;1.92;;
37383;SDS011;23258;49.718;11.082;2023-09-19T00:46:07;2.03;;;1.83;;
37383;SDS011;23258;49.718;11.082;2023-09-19T00:48:38;2.63;;;2.00;;
37383;SDS011;23258;49.718;11.082;2023-09-19T00:51:10;2.50;;;2.30;;
37383;SDS011;23258;49.718;11.082;2023-09-19T00:53:41;2.28;;;2.00;;
37383;SDS011;23258;49.718;11.082;2023-09-19T00:56:15;4.10;;;2.33;;
37383;SDS011;23258;49.718;11.082;2023-09-19T00:58:46;2.83;;;2.45;;
37383;SDS011;23258;49.718;11.082;2023-09-19T01:01:16;2.08;;;1.83;;
37383;SDS011;23258;49.718;11.082;2023-09-19T01:03:46;2.00;;;1.90;;
37383;SDS011;23258;49.718;11.082;2023-09-19T01:06:17;1.73;;;1.63;;
37383;SDS011;23258;49.718;11.082;2023-09-19T01:08:47;1.42;;;1.33;;
37383;SDS011;23258;49.718;11.082;2023-09-19T01:11:20;2.00;;;1.80;;
37383;SDS011;23258;49.718;11.082;2023-09-19T01:13:55;2.05;;;1.95;;
37383;SDS011;23258;49.718;11.082;2023-09-19T01:16:30;2.22;;;1.80;;
37383;SDS011;23258;49.718;11.082;2023-09-19T01:19:07;1.90;;;1.80;;
37383;SDS011;23258;49.718;11.082;2023-09-19T01:21:41;1.70;;;1.55;;
37383;SDS011;23258;49.718;11.082;2023-09-19T01:24:18;1.67;;;1.60;;
37383;SDS011;23258;49.718;11.082;2023-09-19T01:29:41;1.95;;;1.85;;
37383;SDS011;23258;49.718;11.082;2023-09-19T01:32:16;3.05;;;1.83;;
37383;SDS011;23258;49.718;11.082;2023-09-19T01:34:51;1.50;;;1.40;;
37383;SDS011;23258;49.718;11.082;2023-09-19T01:37:23;2.22;;;2.03;;
37383;SDS011;23258;49.718;11.082;2023-09-19T01:39:55;5.60;;;1.80;;
37383;SDS011;23258;49.718;11.082;2023-09-19T01:42:37;2.08;;;1.80;;
37383;SDS011;23258;49.718;11.082;2023-09-19T01:45:11;3.25;;;2.00;;
37383;SDS011;23258;49.718;11.082;2023-09-19T01:47:46;2.08;;;1.95;;
37383;SDS011;23258;49.718;11.082;2023-09-19T01:50:20;2.80;;;1.77;;
37383;SDS011;23258;49.718;11.082;2023-09-19T01:52:54;2.38;;;2.03;;
37383;SDS011;23258;49.718;11.082;2023-09-19T01:55:25;1.80;;;1.52;;
37383;SDS011;23258;49.718;11.082;2023-09-19T01:57:58;1.98;;;1.63;;
37383;SDS011;23258;49.718;11.082;2023-09-19T02:00:31;1.70;;;1.40;;
37383;SDS011;23258;49.718;11.082;2023-09-19T02:03:05;3.08;;;1.70;;
37383;SDS011;23258;49.718;11.082;2023-09-19T02:05:35;4.25;;;1.85;;
37383;SDS011;23258;49.718;11.082;2023-09-19T02:08:05;1.10;;;1.10;;
37383;SDS011;23258;49.718;11.082;2023-09-19T02:10:36;1.40;;;1.30;;
37383;SDS011;23258;49.718;11.082;2023-09-19T02:13:08;1.52;;;1.42;;
37383;SDS011;23258;49.718;11.082;2023-09-19T02:15:37;1.20;;;1.17;;
37383;SDS011;23258;49.718;11.082;2023-09-19T02:18:10;1.40;;;1.30;;
37383;SDS011;23258;49.718;11.082;2023-09-19T02:20:41;1.52;;;1.42;;
37383;SDS011;23258;49.718;11.082;2023-09-19T02:23:11;1.77;;;1.50;;
37383;SDS011;23258;49.718;11.082;2023-09-19T02:25:42;2.45;;;1.90;;
37383;SDS011;23258;49.718;11.082;2023-09-19T02:28:12;2.17;;;1.55;;
37383;SDS011;23258;49.718;11.082;2023-09-19T02:30:41;1.48;;;1.38;;
37383;SDS011;23258;49.718;11.082;2023-09-19T02:33:14;1.77;;;1.67;;
37383;SDS011;23258;49.718;11.082;2023-09-19T02:35:44;2.05;;;0.90;;
37383;SDS011;23258;49.718;11.082;2023-09-19T02:38:14;1.55;;;1.45;;
37383;SDS011;23258;49.718;11.082;2023-09-19T02:40:48;1.63;;;1.25;;
37383;SDS011;23258;49.718;11.082;2023-09-19T02:43:18;1.52;;;1.42;;
37383;SDS011;23258;49.718;11.082;2023-09-19T02:45:48;1.40;;;1.30;;
37383;SDS011;23258;49.718;11.082;2023-09-19T02:48:22;3.80;;;1.55;;
37383;SDS011;23258;49.718;11.082;2023-09-19T02:50:52;1.40;;;1.30;;
37383;SDS011;23258;49.718;11.082;2023-09-19T02:53:22;1.20;;;1.10;;
37383;SDS011;23258;49.718;11.082;2023-09-19T02:55:52;0.95;;;0.95;;
37383;SDS011;23258;49.718;11.082;2023-09-19T02:58:22;1.40;;;1.30;;
37383;SDS011;23258;49.718;11.082;2023-09-19T03:00:54;1.75;;;1.45;;
37383;SDS011;23258;49.718;11.082;2023-09-19T03:03:27;2.45;;;1.20;;
37383;SDS011;23258;49.718;11.082;2023-09-19T03:05:57;1.60;;;1.50;;
37383;SDS011;23258;49.718;11.082;2023-09-19T03:08:30;2.75;;;1.48;;
37383;SDS011;23258;49.718;11.082;2023-09-19T03:11:03;1.20;;;1.10;;
37383;SDS011;23258;49.718;11.082;2023-09-19T03:13:37;2.00;;;1.38;;
37383;SDS011;23258;49.718;11.082;2023-09-19T03:16:10;1.40;;;1.30;;
37383;SDS011;23258;49.718;11.082;2023-09-19T03:18:44;1.17;;;1.08;;
37383;SDS011;23258;49.718;11.082;2023-09-19T03:21:16;1.15;;;1.15;;
37383;SDS011;23258;49.718;11.082;2023-09-19T03:23:46;1.38;;;1.27;;
37383;SDS011;23258;49.718;11.082;2023-09-19T03:26:16;5.78;;;1.45;;
37383;SDS011;23258;49.718;11.082;2023-09-19T03:28:46;1.30;;;1.08;;
37383;SDS011;23258;49.718;11.082;2023-09-19T03:31:16;1.48;;;1.38;;
37383;SDS011;23258;49.718;11.082;2023-09-19T03:33:49;3.03;;;1.02;;
37383;SDS011;23258;49.718;11.082;2023-09-19T03:36:21;0.90;;;0.90;;
37383;SDS011;23258;49.718;11.082;2023-09-19T03:38:50;1.23;;;1.13;;
37383;SDS011;23258;49.718;11.082;2023-09-19T03:41:20;1.35;;;1.05;;
37383;SDS011;23258;49.718;11.082;2023-09-19T03:43:50;2.05;;;1.42;;
37383;SDS011;23258;49.718;11.082;2023-09-19T03:46:20;1.35;;;1.25;;
37383;SDS011;23258;49.718;11.082;2023-09-19T03:48:53;2.38;;;1.45;;
37383;SDS011;23258;49.718;11.082;2023-09-19T03:51:22;1.10;;;1.10;;
37383;SDS011;23258;49.718;11.082;2023-09-19T03:53:52;2.40;;;1.00;;
37383;SDS011;23258;49.718;11.082;2023-09-19T03:56:22;1.85;;;1.08;;
37383;SDS011;23258;49.718;11.082;2023-09-19T03:58:52;1.38;;;1.38;;
37383;SDS011;23258;49.718;11.082;2023-09-19T04:01:22;2.55;;;1.20;;
37383;SDS011;23258;49.718;11.082;2023-09-19T04:03:54;1.48;;;1.33;;
37383;SDS011;23258;49.718;11.082;2023-09-19T04:06:24;1.05;;;1.05;;
37383;SDS011;23258;49.718;11.082;2023-09-19T04:08:54;1.55;;;1.45;;
37383;SDS011;23258;49.718;11.082;2023-09-19T04:11:24;1.40;;;1.20;;
37383;SDS011;23258;49.718;11.082;2023-09-19T04:13:54;1.45;;;1.35;;
37383;SDS011;23258;49.718;11.082;2023-09-19T04:16:24;2.20;;;1.52;;
37383;SDS011;23258;49.718;11.082;2023-09-19T04:18:58;2.38;;;1.77;;
37383;SDS011;23258;49.718;11.082;2023-09-19T04:21:27;1.27;;;1.25;;
37383;SDS011;23258;49.718;11.082;2023-09-19T04:23:57;1.33;;;1.23;;
37383;SDS011;23258;49.718;11.082;2023-09-19T04:26:27;1.92;;;1.83;;
37383;SDS011;23258;49.718;11.082;2023-09-19T04:28:56;1.40;;;1.30;;
37383;SDS011;23258;49.718;11.082;2023-09-19T04:31:27;2.95;;;1.73;;
37383;SDS011;23258;49.718;11.082;2023-09-19T04:34:01;3.15;;;2.10;;
37383;SDS011;23258;49.718;11.082;2023-09-19T04:36:32;1.17;;;1.17;;
37383;SDS011;23258;49.718;11.082;2023-09-19T04:39:03;1.65;;;1.17;;
37383;SDS011;23258;49.718;11.082;2023-09-19T04:41:35;3.63;;;1.58;;
37383;SDS011;23258;49.718;11.082;2023-09-19T04:44:06;1.35;;;1.35;;
37383;SDS011;23258;49.718;11.082;2023-09-19T04:46:36;1.60;;;1.42;;
37383;SDS011;23258;49.718;11.082;2023-09-19T04:49:08;4.65;;;1.60;;
37383;SDS011;23258;49.718;11.082;2023-09-19T04:51:39;1.95;;;1.30;;
37383;SDS011;23258;49.718;11.082;2023-09-19T04:54:09;2.20;;;1.67;;
37383;SDS011;23258;49.718;11.082;2023-09-19T04:56:39;1.90;;;1.55;;
37383;SDS011;23258;49.718;11.082;2023-09-19T04:59:09;2.88;;;2.13;;
37383;SDS011;23258;49.718;11.082;2023-09-19T05:01:41;1.95;;;1.85;;
37383;SDS011;23258;49.718;11.082;2023-09-19T05:04:14;1.95;;;1.52;;
37383;SDS011;23258;49.718;11.082;2023-09-19T05:06:44;2.17;;;1.98;;
37383;SDS011;23258;49.718;11.082;2023-09-19T05:09:14;1.95;;;1.80;;
37383;SDS011;23258;49.718;11.082;2023-09-19T05:11:46;1.73;;;1.63;;
37383;SDS011;23258;49.718;11.082;2023-09-19T05:14:18;1.63;;;1.42;;
37383;SDS011;23258;49.718;11.082;2023-09-19T05:16:47;1.67;;;1.58;;
37383;SDS011;23258;49.718;11.082;2023-09-19T05:19:20;1.48;;;1.38;;
37383;SDS011;23258;49.718;11.082;2023-09-19T05:21:49;1.50;;;1.40;;
37383;SDS011;23258;49.718;11.082;2023-09-19T05:24:19;2.30;;;1.80;;
37383;SDS011;23258;49.718;11.082;2023-09-19T05:26:50;2.30;;;1.63;;
37383;SDS011;23258;49.718;11.082;2023-09-19T05:29:19;1.48;;;1.48;;
37383;SDS011;23258;49.718;11.082;2023-09-19T05:31:49;2.30;;;2.08;;
37383;SDS011;23258;49.718;11.082;2023-09-19T05:34:24;4.13;;;1.40;;
37383;SDS011;23258;49.718;11.082;2023-09-19T05:36:57;1.83;;;1.73;;
37383;SDS011;23258;49.718;11.082;2023-09-19T05:39:26;2.45;;;1.67;;
37383;SDS011;23258;49.718;11.082;2023-09-19T05:41:56;2.35;;;1.88;;
37383;SDS011;23258;49.718;11.082;2023-09-19T05:44:26;4.63;;;2.33;;
37383;SDS011;23258;49.718;11.082;2023-09-19T05:46:56;4.15;;;2.10;;
37383;SDS011;23258;49.718;11.082;2023-09-19T05:49:28;3.33;;;2.08;;
37383;SDS011;23258;49.718;11.082;2023-09-19T05:51:58;2.30;;;1.92;;
37383;SDS011;23258;49.718;11.082;2023-09-19T05:54:28;2.05;;;1.95;;
37383;SDS011;23258;49.718;11.082;2023-09-19T05:56:57;3.75;;;2.20;;
37383;SDS011;23258;49.718;11.082;2023-09-19T05:59:28;3.03;;;2.10;;
37383;SDS011;23258;49.718;11.082;2023-09-19T06:01:57;2.33;;;2.22;;
37383;SDS011;23258;49.718;11.082;2023-09-19T06:04:30;2.00;;;1.90;;
37383;SDS011;23258;49.718;11.082;2023-09-19T06:07:00;3.05;;;1.98;;
37383;SDS011;23258;49.718;11.082;2023-09-19T06:09:29;2.25;;;2.05;;
37383;SDS011;23258;49.718;11.082;2023-09-19T06:12:00;2.78;;;2.53;;
37383;SDS011;23258;49.718;11.082;2023-09-19T06:14:34;2.30;;;1.98;;
37383;SDS011;23258;49.718;11.082;2023-09-19T06:17:04;3.45;;;2.05;;
37383;SDS011;23258;49.718;11.082;2023-09-19T06:19:36;2.10;;;2.00;;
37383;SDS011;23258;49.718;11.082;2023-09-19T06:22:06;1.98;;;1.88;;
37383;SDS011;23258;49.718;11.082;2023-09-19T06:24:36;2.10;;;1.98;;
37383;SDS011;23258;49.718;11.082;2023-09-19T06:27:06;2.22;;;2.10;;
37383;SDS011;23258;49.718;11.082;2023-09-19T06:29:36;2.22;;;2.00;;
37383;SDS011;23258;49.718;11.082;2023-09-19T06:32:07;3.13;;;2.83;;
37383;SDS011;23258;49.718;11.082;2023-09-19T06:34:40;2.33;;;2.17;;
37383;SDS011;23258;49.718;11.082;2023-09-19T06:37:10;2.28;;;1.80;;
37383;SDS011;23258;49.718;11.082;2023-09-19T06:39:40;1.88;;;1.77;;
37383;SDS011;23258;49.718;11.082;2023-09-19T06:42:10;1.80;;;1.70;;
37383;SDS011;23258;49.718;11.082;2023-09-19T06:44:39;4.07;;;1.95;;
37383;SDS011;23258;49.718;11.082;2023-09-19T06:47:09;1.80;;;1.70;;
37383;SDS011;23258;49.718;11.082;2023-09-19T06:49:41;1.50;;;1.40;;
37383;SDS011;23258;49.718;11.082;2023-09-19T06:52:12;2.22;;;1.85;;
37383;SDS011;23258;49.718;11.082;2023-09-19T06:54:42;2.47;;;1.80;;
37383;SDS011;23258;49.718;11.082;2023-09-19T06:57:12;2.47;;;1.85;;
37383;SDS011;23258;49.718;11.082;2023-09-19T06:59:42;1.70;;;1.65;;
37383;SDS011;23258;49.718;11.082;2023-09-19T07:02:11;2.17;;;1.77;;
37383;SDS011;23258;49.718;11.082;2023-09-19T07:04:44;2.55;;;1.73;;
37383;SDS011;23258;49.718;11.082;2023-09-19T07:07:14;1.92;;;1.83;;
37383;SDS011;23258;49.718;11.082;2023-09-19T07:09:43;1.85;;;1.38;;
37383;SDS011;23258;49.718;11.082;2023-09-19T07:12:15;3.10;;;1.70;;
37383;SDS011;23258;49.718;11.082;2023-09-19T07:14:46;2.40;;;1.45;;
37383;SDS011;23258;49.718;11.082;2023-09-19T07:17:15;1.65;;;1.55;;
37383;SDS011;23258;49.718;11.082;2023-09-19T07:19:49;1.45;;;1.35;;
37383;SDS011;23258;49.718;11.082;2023-09-19T07:22:18;2.05;;;1.95;;
37383;SDS011;23258;49.718;11.082;2023-09-19T07:24:50;1.75;;;1.58;;
37383;SDS011;23258;49.718;11.082;2023-09-19T07:27:20;1.42;;;1.33;;
37383;SDS011;23258;49.718;11.082;2023-09-19T07:29:49;1.73;;;1.63;;
37383;SDS011;23258;49.718;11.082;2023-09-19T07:32:20;1.50;;;1.40;;
37383;SDS011;23258;49.718;11.082;2023-09-19T07:34:53;1.60;;;1.55;;
37383;SDS011;23258;49.718;11.082;2023-09-19T07:37:23;1.52;;;1.42;;
37383;SDS011;23258;49.718;11.082;2023-09-19T07:39:54;1.83;;;1.70;;
37383;SDS011;23258;49.718;11.082;2023-09-19T07:42:23;1.30;;;1.25;;
37383;SDS011;23258;49.718;11.082;2023-09-19T07:44:53;3.03;;;1.98;;
37383;SDS011;23258;49.718;11.082;2023-09-19T07:47:23;3.03;;;1.73;;
37383;SDS011;23258;49.718;11.082;2023-09-19T07:49:56;1.42;;;1.33;;
37383;SDS011;23258;49.718;11.082;2023-09-19T07:52:27;1.98;;;1.42;;
37383;SDS011;23258;49.718;11.082;2023-09-19T07:55:00;2.42;;;1.67;;
37383;SDS011;23258;49.718;11.082;2023-09-19T07:57:35;2.00;;;1.27;;
37383;SDS011;23258;49.718;11.082;2023-09-19T08:00:08;1.73;;;1.60;;
37383;SDS011;23258;49.718;11.082;2023-09-19T08:02:40;1.70;;;1.60;;
37383;SDS011;23258;49.718;11.082;2023-09-19T08:05:12;2.08;;;1.83;;
37383;SDS011;23258;49.718;11.082;2023-09-19T08:07:44;1.60;;;1.50;;
37383;SDS011;23258;49.718;11.082;2023-09-19T08:10:15;1.63;;;1.52;;
37383;SDS011;23258;49.718;11.082;2023-09-19T08:12:46;2.35;;;1.30;;
37383;SDS011;23258;49.718;11.082;2023-09-19T08:15:22;3.15;;;1.63;;
37383;SDS011;23258;49.718;11.082;2023-09-19T08:17:52;2.15;;;1.95;;
37383;SDS011;23258;49.718;11.082;2023-09-19T08:20:24;1.45;;;1.35;;
37383;SDS011;23258;49.718;11.082;2023-09-19T08:22:54;1.52;;;1.42;;
37383;SDS011;23258;49.718;11.082;2023-09-19T08:25:24;1.30;;;1.20;;
37383;SDS011;23258;49.718;11.082;2023-09-19T08:27:55;1.60;;;1.60;;
37383;SDS011;23258;49.718;11.082;2023-09-19T08:30:26;1.90;;;1.60;;
37383;SDS011;23258;49.718;11.082;2023-09-19T08:32:57;1.70;;;1.60;;
37383;SDS011;23258;49.718;11.082;2023-09-19T08:35:30;1.95;;;1.38;;
37383;SDS011;23258;49.718;11.082;2023-09-19T08:38:00;1.67;;;1.35;;
37383;SDS011;23258;49.718;11.082;2023-09-19T08:40:31;2.55;;;1.63;;
37383;SDS011;23258;49.718;11.082;2023-09-19T08:43:01;2.75;;;1.73;;
37383;SDS011;23258;49.718;11.082;2023-09-19T08:45:30;3.70;;;1.52;;
37383;SDS011;23258;49.718;11.082;2023-09-19T08:48:03;2.83;;;1.85;;
37383;SDS011;23258;49.718;11.082;2023-09-19T08:50:47;1.33;;;0.98;;
37383;SDS011;23258;49.718;11.082;2023-09-19T08:53:20;4.03;;;1.60;;
37383;SDS011;23258;49.718;11.082;2023-09-19T08:55:52;1.92;;;1.42;;
37383;SDS011;23258;49.718;11.082;2023-09-19T08:58:26;1.75;;;1.08;;
37383;SDS011;23258;49.718;11.082;2023-09-19T09:00:57;2.10;;;1.33;;
37383;SDS011;23258;49.718;11.082;2023-09-19T09:03:29;4.78;;;1.88;;
37383;SDS011;23258;49.718;11.082;2023-09-19T09:06:04;1.10;;;1.00;;
37383;SDS011;23258;49.718;11.082;2023-09-19T09:08:34;1.08;;;0.95;;
37383;SDS011;23258;49.718;11.082;2023-09-19T09:11:04;1.02;;;0.90;;
37383;SDS011;23258;49.718;11.082;2023-09-19T09:13:35;6.28;;;1.58;;
37383;SDS011;23258;49.718;11.082;2023-09-19T09:16:06;2.15;;;1.38;;
37383;SDS011;23258;49.718;11.082;2023-09-19T09:18:37;2.33;;;1.58;;
37383;SDS011;23258;49.718;11.082;2023-09-19T09:21:09;1.13;;;1.13;;
37383;SDS011;23258;49.718;11.082;2023-09-19T09:23:41;1.55;;;1.45;;
37383;SDS011;23258;49.718;11.082;2023-09-19T09:26:11;1.63;;;0.95;;
37383;SDS011;23258;49.718;11.082;2023-09-19T09:28:46;1.63;;;1.10;;
37383;SDS011;23258;49.718;11.082;2023-09-19T09:31:22;3.20;;;1.15;;
37383;SDS011;23258;49.718;11.082;2023-09-19T09:33:52;4.72;;;1.40;;
37383;SDS011;23258;49.718;11.082;2023-09-19T09:36:36;1.88;;;1.10;;
37383;SDS011;23258;49.718;11.082;2023-09-19T09:39:08;1.27;;;1.10;;
37383;SDS011;23258;49.718;11.082;2023-09-19T09:41:52;1.13;;;1.08;;
37383;SDS011;23258;49.718;11.082;2023-09-19T09:44:29;1.67;;;1.30;;
37383;SDS011;23258;49.718;11.082;2023-09-19T09:46:59;3.15;;;1.20;;
37383;SDS011;23258;49.718;11.082;2023-09-19T09:49:49;1.23;;;0.95;;
37383;SDS011;23258;49.718;11.082;2023-09-19T09:52:46;1.10;;;1.02;;
37383;SDS011;23258;49.718;11.082;2023-09-19T09:55:16;1.55;;;1.05;;
37383;SDS011;23258;49.718;11.082;2023-09-19T09:57:47;0.90;;;0.90;;
37383;SDS011;23258;49.718;11.082;2023-09-19T10:00:23;3.05;;;1.48;;
37383;SDS011;23258;49.718;11.082;2023-09-19T10:02:59;1.42;;;0.88;;
37383;SDS011;23258;49.718;11.082;2023-09-19T10:05:31;3.30;;;1.50;;
37383;SDS011;23258;49.718;11.082;2023-09-19T10:08:13;2.33;;;1.25;;
37383;SDS011;23258;49.718;11.082;2023-09-19T10:10:46;1.60;;;1.10;;
37383;SDS011;23258;49.718;11.082;2023-09-19T10:13:21;1.40;;;1.30;;
37383;SDS011;23258;49.718;11.082;2023-09-19T10:15:53;1.48;;;1.38;;
37383;SDS011;23258;49.718;11.082;2023-09-19T10:18:23;1.02;;;0.80;;
37383;SDS011;23258;49.718;11.082;2023-09-19T10:20:55;2.42;;;1.58;;
37383;SDS011;23258;49.718;11.082;2023-09-19T10:23:27;2.45;;;1.48;;
37383;SDS011;23258;49.718;11.082;2023-09-19T10:26:01;0.73;;;0.73;;
37383;SDS011;23258;49.718;11.082;2023-09-19T10:28:32;0.70;;;0.70;;
37383;SDS011;23258;49.718;11.082;2023-09-19T10:31:02;0.82;;;0.82;;
37383;SDS011;23258;49.718;11.082;2023-09-19T10:33:34;1.58;;;1.45;;
37383;SDS011;23258;49.718;11.082;2023-09-19T10:36:05;1.15;;;1.05;;
37383;SDS011;23258;49.718;11.082;2023-09-19T10:38:38;2.40;;;1.20;;
37383;SDS011;23258;49.718;11.082;2023-09-19T10:41:12;1.15;;;1.00;;
37383;SDS011;23258;49.718;11.082;2023-09-19T10:43:43;0.88;;;0.88;;
37383;SDS011;23258;49.718;11.082;2023-09-19T10:46:15;1.05;;;0.93;;
37383;SDS011;23258;49.718;11.082;2023-09-19T10:48:45;1.05;;;0.95;;
37383;SDS011;23258;49.718;11.082;2023-09-19T10:51:16;1.67;;;1.13;;
37383;SDS011;23258;49.718;11.082;2023-09-19T10:53:53;0.98;;;0.98;;
37383;SDS011;23258;49.718;11.082;2023-09-19T10:56:26;1.50;;;0.77;;
37383;SDS011;23258;49.718;11.082;2023-09-19T10:59:06;0.90;;;0.90;;
37383;SDS011;23258;49.718;11.082;2023-09-19T11:01:41;2.20;;;1.35;;
37383;SDS011;23258;49.718;11.082;2023-09-19T11:04:21;1.00;;;1.00;;
37383;SDS011;23258;49.718;11.082;2023-09-19T11:07:01;1.20;;;1.10;;
37383;SDS011;23258;49.718;11.082;2023-09-19T11:09:47;0.90;;;0.90;;
37383;SDS011;23258;49.718;11.082;2023-09-19T11:17:59;1.25;;;1.15;;
37383;SDS011;23258;49.718;11.082;2023-09-19T11:20:31;3.40;;;1.45;;
37383;SDS011;23258;49.718;11.082;2023-09-19T11:23:18;1.50;;;1.10;;
37383;SDS011;23258;49.718;11.082;2023-09-19T11:25:52;1.65;;;1.35;;
37383;SDS011;23258;49.718;11.082;2023-09-19T11:28:28;2.10;;;1.33;;
37383;SDS011;23258;49.718;11.082;2023-09-19T11:30:58;1.45;;;1.35;;
37383;SDS011;23258;49.718;11.082;2023-09-19T11:33:28;0.93;;;0.93;;
37383;SDS011;23258;49.718;11.082;2023-09-19T11:36:01;2.95;;;1.00;;
37383;SDS011;23258;49.718;11.082;2023-09-19T11:49:35;0.88;;;0.82;;
37383;SDS011;23258;49.718;11.082;2023-09-19T11:52:05;0.70;;;0.70;;
37383;SDS011;23258;49.718;11.082;2023-09-19T11:54:35;1.42;;;1.30;;
37383;SDS011;23258;49.718;11.082;2023-09-19T11:57:08;1.17;;;1.05;;
37383;SDS011;23258;49.718;11.082;2023-09-19T11:59:39;1.02;;;0.93;;
37383;SDS011;23258;49.718;11.082;2023-09-19T12:02:08;0.93;;;0.93;;
37383;SDS011;23258;49.718;11.082;2023-09-19T12:04:45;0.75;;;0.75;;
37383;SDS011;23258;49.718;11.082;2023-09-19T12:07:16;1.42;;;1.27;;
37383;SDS011;23258;49.718;11.082;2023-09-19T12:09:47;1.20;;;1.10;;
37383;SDS011;23258;49.718;11.082;2023-09-19T12:12:19;2.95;;;1.00;;
37383;SDS011;23258;49.718;11.082;2023-09-19T12:14:49;1.25;;;1.02;;
37383;SDS011;23258;49.718;11.082;2023-09-19T12:17:18;2.25;;;1.17;;
37383;SDS011;23258;49.718;11.082;2023-09-19T12:19:52;2.22;;;1.38;;
37383;SDS011;23258;49.718;11.082;2023-09-19T12:22:22;1.08;;;1.00;;
37383;SDS011;23258;49.718;11.082;2023-09-19T12:24:52;0.82;;;0.70;;
37383;SDS011;23258;49.718;11.082;2023-09-19T12:27:24;0.98;;;0.82;;
37383;SDS011;23258;49.718;11.082;2023-09-19T12:29:54;1.88;;;1.25;;
37383;SDS011;23258;49.718;11.082;2023-09-19T12:32:35;1.20;;;1.10;;
37383;SDS011;23258;49.718;11.082;2023-09-19T12:35:09;1.42;;;0.80;;
37383;SDS011;23258;49.718;11.082;2023-09-19T12:37:44;1.15;;;1.05;;
37383;SDS011;23258;49.718;11.082;2023-09-19T12:40:15;0.68;;;0.68;;
37383;SDS011;23258;49.718;11.082;2023-09-19T12:42:45;3.75;;;1.17;;
37383;SDS011;23258;49.718;11.082;2023-09-19T12:45:14;1.27;;;1.00;;
37383;SDS011;23258;49.718;11.082;2023-09-19T12:50:40;3.30;;;1.13;;
37383;SDS011;23258;49.718;11.082;2023-09-19T12:53:35;1.23;;;0.80;;
37383;SDS011;23258;49.718;11.082;2023-09-19T12:56:08;0.70;;;0.70;;
37383;SDS011;23258;49.718;11.082;2023-09-19T12:58:50;1.05;;;1.05;;
37383;SDS011;23258;49.718;11.082;2023-09-19T13:01:21;4.93;;;1.20;;
37383;SDS011;23258;49.718;11.082;2023-09-19T13:06:44;1.02;;;1.02;;
37383;SDS011;23258;49.718;11.082;2023-09-19T13:09:16;1.33;;;0.82;;
37383;SDS011;23258;49.718;11.082;2023-09-19T13:11:47;2.15;;;1.17;;
37383;SDS011;23258;49.718;11.082;2023-09-19T13:14:18;2.35;;;1.00;;
37383;SDS011;23258;49.718;11.082;2023-09-19T13:16:53;1.90;;;1.13;;
37383;SDS011;23258;49.718;11.082;2023-09-19T13:19:36;1.27;;;1.10;;
37383;SDS011;23258;49.718;11.082;2023-09-19T13:24:54;1.98;;;1.25;;
37383;SDS011;23258;49.718;11.082;2023-09-19T13:27:25;1.40;;;1.08;;
37383;SDS011;23258;49.718;11.082;2023-09-19T13:29:55;2.30;;;0.85;;
37383;SDS011;23258;49.718;11.082;2023-09-19T13:32:25;1.02;;;1.00;;
37383;SDS011;23258;49.718;11.082;2023-09-19T13:34:55;1.45;;;1.10;;
37383;SDS011;23258;49.718;11.082;2023-09-19T13:37:25;1.02;;;1.02;;
37383;SDS011;23258;49.718;11.082;2023-09-19T13:39:58;2.20;;;0.95;;
37383;SDS011;23258;49.718;11.082;2023-09-19T13:42:28;1.50;;;0.98;;
37383;SDS011;23258;49.718;11.082;2023-09-19T13:44:58;3.05;;;0.77;;
37383;SDS011;23258;49.718;11.082;2023-09-19T13:47:28;0.80;;;0.80;;
37383;SDS011;23258;49.718;11.082;2023-09-19T13:49:59;1.25;;;1.00;;
37383;SDS011;23258;49.718;11.082;2023-09-19T13:52:31;3.28;;;1.00;;
37383;SDS011;23258;49.718;11.082;2023-09-19T13:55:03;1.63;;;0.98;;
37383;SDS011;23258;49.718;11.082;2023-09-19T13:57:33;4.38;;;1.60;;
37383;SDS011;23258;49.718;11.082;2023-09-19T14:00:04;1.50;;;1.20;;
37383;SDS011;23258;49.718;11.082;2023-09-19T14:02:39;1.20;;;1.10;;
37383;SDS011;23258;49.718;11.082;2023-09-19T14:05:11;1.10;;;1.00;;
37383;SDS011;23258;49.718;11.082;2023-09-19T14:07:43;2.05;;;1.00;;
37383;SDS011;23258;49.718;11.082;2023-09-19T14:10:16;1.15;;;0.98;;
37383;SDS011;23258;49.718;11.082;2023-09-19T14:12:45;1.55;;;1.17;;
37383;SDS011;23258;49.718;11.082;2023-09-19T14:15:15;0.73;;;0.73;;
37383;SDS011;23258;49.718;11.082;2023-09-19T14:17:45;1.90;;;0.95;;
37383;SDS011;23258;49.718;11.082;2023-09-19T14:20:15;1.73;;;1.20;;
37383;SDS011;23258;49.718;11.082;2023-09-19T14:22:46;0.93;;;0.80;;
37383;SDS011;23258;49.718;11.082;2023-09-19T14:25:19;1.23;;;0.70;;
37383;SDS011;23258;49.718;11.082;2023-09-19T14:27:50;0.80;;;0.73;;
37383;SDS011;23258;49.718;11.082;2023-09-19T14:30:19;2.08;;;1.13;;
37383;SDS011;23258;49.718;11.082;2023-09-19T14:32:50;1.33;;;1.25;;
37383;SDS011;23258;49.718;11.082;2023-09-19T14:35:20;1.10;;;1.00;;
37383;SDS011;23258;49.718;11.082;2023-09-19T14:37:49;1.13;;;0.90;;
37383;SDS011;23258;49.718;11.082;2023-09-19T14:40:22;1.00;;;0.95;;
37383;SDS011;23258;49.718;11.082;2023-09-19T14:42:52;1.00;;;0.90;;
37383;SDS011;23258;49.718;11.082;2023-09-19T14:45:22;1.50;;;0.85;;
37383;SDS011;23258;49.718;11.082;2023-09-19T14:47:52;0.63;;;0.63;;
37383;SDS011;23258;49.718;11.082;2023-09-19T14:50:23;1.02;;;1.02;;
37383;SDS011;23258;49.718;11.082;2023-09-19T14:52:53;1.55;;;0.95;;
37383;SDS011;23258;49.718;11.082;2023-09-19T14:55:26;1.23;;;0.88;;
37383;SDS011;23258;49.718;11.082;2023-09-19T14:57:56;1.00;;;0.85;;
37383;SDS011;23258;49.718;11.082;2023-09-19T15:00:26;1.52;;;0.90;;
37383;SDS011;23258;49.718;11.082;2023-09-19T15:02:55;1.25;;;1.00;;
37383;SDS011;23258;49.718;11.082;2023-09-19T15:05:25;0.68;;;0.65;;
37383;SDS011;23258;49.718;11.082;2023-09-19T15:07:56;0.90;;;0.80;;
37383;SDS011;23258;49.718;11.082;2023-09-19T15:10:28;1.65;;;0.80;;
37383;SDS011;23258;49.718;11.082;2023-09-19T15:12:58;1.13;;;0.85;;
37383;SDS011;23258;49.718;11.082;2023-09-19T15:15:28;2.20;;;1.20;;
37383;SDS011;23258;49.718;11.082;2023-09-19T15:17:57;1.15;;;0.85;;
37383;SDS011;23258;49.718;11.082;2023-09-19T15:20:27;2.42;;;1.35;;
37383;SDS011;23258;49.718;11.082;2023-09-19T15:22:57;1.17;;;1.00;;
37383;SDS011;23258;49.718;11.082;2023-09-19T15:25:30;1.00;;;1.00;;
37383;SDS011;23258;49.718;11.082;2023-09-19T15:28:01;1.05;;;1.00;;